Örnsköldsvik, Sweden

12:12 PM CET on Januari 24, 2018 (GMT +0100)
Ornskoldsvik | | Change Station

Elev 338 ft 63.40 °N, 18.97 °E | Updated 22 minutes ago

Molnigt
Molnigt
30 °F
Feels Like 27 °F
N
4
Vind Växlande Vind from Sydlig

Idag
High -- | Low -- °F
--% Chance of Precip.
Yesterday
High -- | Low -- °F
Precip. -- tum
Lufttryck 29.27 tum
Sikt 6.2 miles
Molnigt Few 700 ft
Växlande molnighet 1300 ft
Molnigt 3600 ft
Vindavkylning 27 °F
Daggpunkt 30 °F
Luftfuktighet 100%
Rainfall 0.00 tum
Snow Depth Not available.
8:40 AM 3:12 PM
Första kvarteret, 45% visible
METAR ESNO 241050Z 18003KT 140V230 9999 FEW007 SCT013 OVC036 M01/M01 Q0991
Lufttryck 29.27 tum
Sikt 6.2 miles
Molnigt Few 700 ft
Växlande molnighet 1300 ft
Molnigt 3600 ft
Vindavkylning 27 °F
Daggpunkt 30 °F
Luftfuktighet 100%
Rainfall 0.00 tum
Snow Depth Not available.
8:40 AM 3:12 PM
Första kvarteret, 45% visible
METAR ESNO 241050Z 18003KT 140V230 9999 FEW007 SCT013 OVC036 M01/M01 Q0991

Get Severe Weather Alerts

Thanks for signing up!

Be on the lookout for a verification email in your inbox.

You'll start receiving the daily forecast at 6 AM.

×

10-Day Weather Forecast

×

Almanac

Astronomi

Jan. 24, 2018 Rise Set
Actual Time
Civil Twilight
Nautical Twilight
Astronomical Twilight
Månen
Length Of Visible Light
Dagens längd
Tomorrow will be .
, % of the Moon is Illuminated

Today's Extremes

Country Highs Country Lows

Community

WunderPhotos

Category 6

Welcome to Category 6. This is the collective home for Weather Underground's featured writeups by Dr. Jeff Masters (right), Bob Henson (left), Chris Burt, and other regular contributors.

Nearby

Air Quality

  Air Quality AQ Index Pollutant
Not available.

Snödjup

Station Depth Elevation

Earthquake Activity

Stad Distance Mag. Time & Date
Minimum magnitude displayed is 2.5.

Coastal Water Temperatures

Plats Temperatur

Stations

Nearby Weather Stations

Station Location Temp Vindavkylning Daggpunkt Luftfuktighet Vind Precip. Elev Uppdaterad Type